Time,TemperatureF,DewpointF,PressureIn,WindDirection,WindDirectionDegrees,WindSpeedMPH,WindSpeedGustMPH,Humidity,HourlyPrecipIn,Conditions,Clouds,dailyrainin,SoftwareType,DateUTC
2013-03-05 00:00:00,20.6,18.1,30.13,NNW,337,0.0,0.0,90,0.00,,,0.00,Wunderground v.1.15,2013-03-05 05:00:00,
2013-03-05 00:01:00,20.6,18.1,30.13,NNW,337,0.0,0.0,90,0.00,,,0.00,Wunderground v.1.15,2013-03-05 05:01:00,
2013-03-05 00:02:00,20.6,18.1,30.13,NNW,337,0.0,0.0,90,0.00,,,0.00,Wunderground v.1.15,2013-03-05 05:02:00,
2013-03-05 00:03:00,20.6,18.1,30.13,NNW,337,0.0,0.0,90,0.00,,,0.00,Wunderground v.1.15,2013-03-05 05:03:00,
2013-03-05 00:08:00,20.6,18.1,30.13,NNW,337,0.0,0.0,90,0.00,,,0.00,Wunderground v.1.15,2013-03-05 05:08:00,
2013-03-05 00:13:00,20.6,18.4,30.13,NNW,337,0.0,0.0,91,0.00,,,0.00,Wunderground v.1.15,2013-03-05 05:13:00,
2013-03-05 00:18:00,20.6,18.4,30.13,NNW,337,0.0,0.0,91,0.00,,,0.00,Wunderground v.1.15,2013-03-05 05:18:00,
2013-03-05 00:24:00,20.5,18.3,30.13,NNW,337,0.0,0.0,91,0.00,,,0.00,Wunderground v.1.15,2013-03-05 05:24:00,
2013-03-05 00:29:00,20.5,18.3,30.13,NNW,337,0.0,0.0,91,0.00,,,0.00,Wunderground v.1.15,2013-03-05 05:29:00,
2013-03-05 00:34:00,20.5,18.3,30.13,NNW,337,0.0,0.0,91,0.00,,,0.00,Wunderground v.1.15,2013-03-05 05:34:00,
2013-03-05 00:39:00,20.6,18.4,30.13,NNW,337,0.0,0.0,91,0.00,,,0.00,Wunderground v.1.15,2013-03-05 05:39:00,
2013-03-05 00:44:00,20.6,18.4,30.13,NNW,337,0.0,0.0,91,0.00,,,0.00,Wunderground v.1.15,2013-03-05 05:44:00,
2013-03-05 00:49:00,20.7,18.7,30.13,NNW,337,0.0,0.0,92,0.00,,,0.00,Wunderground v.1.15,2013-03-05 05:49:00,
2013-03-05 00:55:00,20.8,18.6,30.13,NNW,337,0.0,0.0,91,0.00,,,0.00,Wunderground v.1.15,2013-03-05 05:55:00,
2013-03-05 01:00:00,20.8,18.8,30.13,NNW,337,0.0,0.0,92,0.00,,,0.00,Wunderground v.1.15,2013-03-05 06:00:00,
2013-03-05 01:06:00,20.9,18.9,30.14,NNW,337,0.0,0.0,92,0.00,,,0.00,Wunderground v.1.15,2013-03-05 06:06:00,
2013-03-05 01:11:00,21.0,19.0,30.14,NNW,337,0.0,0.0,92,0.00,,,0.00,Wunderground v.1.15,2013-03-05 06:11:00,
2013-03-05 01:16:00,21.1,19.1,30.14,NNW,337,0.0,0.0,92,0.00,,,0.00,Wunderground v.1.15,2013-03-05 06:16:00,
2013-03-05 01:21:00,21.2,19.2,30.14,NNW,337,0.0,0.0,92,0.00,,,0.00,Wunderground v.1.15,2013-03-05 06:21:00,
2013-03-05 01:26:00,21.2,19.2,30.14,NNW,337,0.0,0.0,92,0.00,,,0.00,Wunderground v.1.15,2013-03-05 06:26:00,
2013-03-05 01:31:00,21.3,19.3,30.14,NNW,337,0.0,0.0,92,0.00,,,0.00,Wunderground v.1.15,2013-03-05 06:31:00,
2013-03-05 01:36:00,21.5,19.5,30.14,NNW,337,0.0,0.0,92,0.00,,,0.00,Wunderground v.1.15,2013-03-05 06:36:00,
2013-03-05 01:42:00,21.6,19.6,30.14,NNW,337,0.0,0.0,92,0.00,,,0.00,Wunderground v.1.15,2013-03-05 06:42:00,
2013-03-05 01:47:00,21.6,19.6,30.14,NNW,337,0.0,0.0,92,0.00,,,0.00,Wunderground v.1.15,2013-03-05 06:47:00,
2013-03-05 01:52:00,21.8,19.8,30.14,NNW,337,0.0,0.0,92,0.00,,,0.00,Wunderground v.1.15,2013-03-05 06:52:00,
2013-03-05 01:57:00,21.9,19.9,30.14,NNW,337,0.0,0.0,92,0.00,,,0.00,Wunderground v.1.15,2013-03-05 06:57:00,
2013-03-05 02:02:00,22.0,20.0,30.14,NNW,337,0.0,0.0,92,0.00,,,0.00,Wunderground v.1.15,2013-03-05 07:02:00,
2013-03-05 02:07:00,22.0,20.0,30.14,NNW,337,0.0,0.0,92,0.00,,,0.00,Wunderground v.1.15,2013-03-05 07:07:00,
2013-03-05 02:12:00,22.1,20.4,30.14,NNW,337,0.0,0.0,93,0.00,,,0.00,Wunderground v.1.15,2013-03-05 07:12:00,
2013-03-05 02:17:00,22.2,20.5,30.13,NNW,337,0.0,0.0,93,0.00,,,0.00,Wunderground v.1.15,2013-03-05 07:17:00,
2013-03-05 02:22:00,22.3,20.6,30.13,NNW,337,0.0,0.0,93,0.00,,,0.00,Wunderground v.1.15,2013-03-05 07:22:00,
2013-03-05 02:28:00,22.3,20.6,30.13,NNW,337,0.0,0.0,93,0.00,,,0.00,Wunderground v.1.15,2013-03-05 07:28:00,
2013-03-05 02:34:00,22.3,20.3,30.13,NNW,337,0.0,0.0,92,0.00,,,0.00,Wunderground v.1.15,2013-03-05 07:34:00,
2013-03-05 02:39:00,22.4,20.4,30.13,NNW,337,0.0,0.0,92,0.00,,,0.00,Wunderground v.1.15,2013-03-05 07:39:00,
2013-03-05 02:44:00,22.4,20.4,30.13,NNW,337,0.0,0.0,92,0.00,,,0.00,Wunderground v.1.15,2013-03-05 07:44:00,
2013-03-05 02:49:00,22.4,20.4,30.13,NNW,337,0.0,0.0,92,0.00,,,0.00,Wunderground v.1.15,2013-03-05 07:49:00,
2013-03-05 02:54:00,22.4,20.4,30.13,NNW,337,0.0,0.0,92,0.00,,,0.00,Wunderground v.1.15,2013-03-05 07:54:00,
2013-03-05 02:59:00,22.4,20.4,30.13,NNW,337,0.0,0.0,92,0.00,,,0.00,Wunderground v.1.15,2013-03-05 07:59:00,
2013-03-05 03:05:00,22.4,20.4,30.12,NNW,337,0.0,0.0,92,0.00,,,0.00,Wunderground v.1.15,2013-03-05 08:05:00,
2013-03-05 03:10:00,22.4,20.4,30.12,NNW,337,0.0,0.0,92,0.00,,,0.00,Wunderground v.1.15,2013-03-05 08:10:00,
2013-03-05 03:15:00,22.3,20.3,30.12,NNW,337,0.0,0.0,92,0.00,,,0.00,Wunderground v.1.15,2013-03-05 08:15:00,
2013-03-05 03:20:00,22.3,20.3,30.12,NNW,337,0.0,0.0,92,0.00,,,0.00,Wunderground v.1.15,2013-03-05 08:20:00,
2013-03-05 03:25:00,22.2,20.2,30.12,NNW,337,0.0,0.0,92,0.00,,,0.00,Wunderground v.1.15,2013-03-05 08:25:00,
2013-03-05 03:30:00,22.2,20.2,30.12,NNW,337,0.0,0.0,92,0.00,,,0.00,Wunderground v.1.15,2013-03-05 08:30:00,